Time;durP1;ratioP1;P1;durP2;ratioP2;P2;SDS_P1;SDS_P2;PMS_P1;PMS_P2;Temp;Humidity;BMP_temperature;BMP_pressure;BME280_temperature;BME280_humidity;BME280_pressure;Samples;Min_cycle;Max_cycle;Signal;HPM_P1;HPM_P2
2022/04/30 00:02:21;;;;;;;0.00;0.00;;;10.00;92.10;;;8.31;67.80;100805.53;10389842;27;96871;-85
2022/04/30 00:07:25;;;;;;;0.00;0.00;;;9.90;92.70;;;8.22;68.24;100801.09;10411533;27;97525;-86
2022/04/30 00:12:28;;;;;;;0.10;0.10;;;9.80;94.20;;;8.21;68.84;100811.78;10428342;27;96629;-85
2022/04/30 00:17:31;;;;;;;0.00;0.00;;;9.80;93.00;;;8.18;69.27;100815.56;10403364;27;96630;-85
2022/04/30 00:22:35;;;;;;;0.00;0.00;;;9.80;96.60;;;8.14;69.60;100808.03;10409595;27;96552;-85
2022/04/30 00:27:38;;;;;;;0.00;0.00;;;9.70;98.10;;;8.11;69.76;100811.81;10408941;27;97767;-85
2022/04/30 00:32:42;;;;;;;0.00;0.00;;;9.70;97.10;;;8.14;70.21;100813.34;10415896;27;96583;-85
2022/04/30 00:37:45;;;;;;;0.00;0.00;;;9.70;96.50;;;8.18;70.21;100809.44;10379576;27;96676;-85
2022/04/30 00:42:48;;;;;;;0.27;0.20;;;9.70;96.80;;;8.18;70.14;100810.28;10401846;27;97092;-86
2022/04/30 00:47:51;;;;;;;0.00;0.00;;;9.80;97.50;;;8.16;70.54;100814.88;10401577;27;96914;-85
2022/04/30 00:52:58;;;;;;;0.00;0.00;;;9.70;98.60;;;8.12;70.44;100810.81;10408770;27;96674;-85
2022/04/30 00:58:05;;;;;;;0.10;0.10;;;9.70;98.60;;;8.07;70.65;100812.22;10403959;27;96628;-85
2022/04/30 01:03:09;;;;;;;0.00;0.00;;;9.70;99.90;;;7.98;70.44;100821.81;10404172;27;98384;-85
2022/04/30 01:08:12;;;;;;;0.00;0.00;;;9.60;99.90;;;7.86;70.93;100817.59;10392009;27;97643;-85
2022/04/30 01:13:15;;;;;;;0.10;0.10;;;9.50;99.90;;;7.73;71.15;100813.38;10383991;27;97215;-85
2022/04/30 01:18:19;;;;;;;0.00;0.00;;;9.40;99.90;;;7.65;71.09;100807.91;10405113;27;96610;-85
2022/04/30 01:23:23;;;;;;;0.00;0.00;;;9.30;99.90;;;7.57;71.47;100799.81;10402357;27;97267;-85
2022/04/30 01:28:27;;;;;;;0.00;0.00;;;9.20;99.90;;;7.50;71.61;100798.69;10425357;27;97357;-85
2022/04/30 01:39:02;;;;;;;0.00;0.00;;;9.10;99.90;;;7.36;72.37;100799.03;10414540;27;96582;-85
2022/04/30 01:44:05;;;;;;;0.00;0.00;;;9.00;99.90;;;7.32;72.17;100801.13;10392630;27;98138;-85
2022/04/30 01:49:15;;;;;;;0.00;0.00;;;8.90;99.90;;;7.29;72.23;100797.88;10419875;27;96689;-85
2022/04/30 01:54:19;;;;;;;0.00;0.00;;;8.90;99.90;;;7.25;72.60;100789.38;10406718;27;96921;-85
2022/04/30 01:59:21;;;;;;;0.00;0.00;;;8.80;99.90;;;7.23;72.70;100786.88;10386806;27;96687;-85
2022/04/30 02:04:25;;;;;;;0.10;0.07;;;8.80;99.90;;;7.16;72.57;100780.44;10406744;27;98474;-85
2022/04/30 02:09:30;;;;;;;0.00;0.00;;;8.80;99.90;;;7.17;73.00;100782.09;10399504;27;96532;-85
2022/04/30 02:14:35;;;;;;;0.00;0.00;;;8.70;99.90;;;7.15;72.89;100781.41;10387514;27;96621;-85
2022/04/30 02:25:02;;;;;;;0.00;0.00;;;8.80;99.90;;;7.13;73.35;100779.84;10400995;27;99012;-85
2022/04/30 02:30:12;;;;;;;0.00;0.00;;;8.80;99.90;;;7.08;73.60;100780.28;10418571;27;97933;-85
2022/04/30 02:35:26;;;;;;;0.00;0.00;;;8.70;99.90;;;7.03;73.51;100771.06;10388129;27;98420;-85
2022/04/30 02:40:32;;;;;;;0.00;0.00;;;8.70;99.90;;;6.93;73.62;100769.19;10393393;27;97402;-85
2022/04/30 02:45:37;;;;;;;0.40;0.40;;;8.60;99.90;;;6.88;73.90;100765.25;10418938;27;97308;-85
2022/04/30 02:50:40;;;;;;;0.00;0.00;;;8.50;99.90;;;6.82;74.25;100756.03;10422145;27;96577;-85
2022/04/30 02:55:43;;;;;;;0.00;0.00;;;8.50;99.90;;;6.73;74.66;100748.09;10389750;27;97040;-85
2022/04/30 03:00:51;;;;;;;0.00;0.00;;;8.40;99.90;;;6.61;74.97;100750.78;10417456;27;96975;-85
2022/04/30 03:05:56;;;;;;;0.00;0.00;;;8.30;99.90;;;6.49;75.92;100748.34;10392673;27;96810;-85
2022/04/30 03:11:01;;;;;;;0.00;0.00;;;8.20;99.90;;;6.44;76.08;100746.06;10420567;27;98258;-85
2022/04/30 03:21:47;;;;;;;0.00;0.00;;;8.10;99.90;;;6.35;76.53;100762.66;10414318;27;96452;-85
2022/04/30 03:26:50;;;;;;;0.00;0.00;;;8.00;99.90;;;6.30;77.07;100755.16;10391577;27;96568;-85
2022/04/30 03:31:53;;;;;;;0.00;0.00;;;8.00;99.90;;;6.29;77.00;100758.72;10434417;27;96724;-85
2022/04/30 03:36:55;;;;;;;0.00;0.00;;;7.90;99.90;;;6.29;76.89;100758.72;10432454;27;98046;-84
2022/04/30 03:41:58;;;;;;;0.00;0.00;;;7.90;99.90;;;6.31;77.94;100762.09;10409452;27;96531;-85
2022/04/30 03:47:02;;;;;;;0.00;0.00;;;7.90;99.90;;;6.35;78.07;100760.03;10408979;27;98512;-86
2022/04/30 03:52:07;;;;;;;0.00;0.00;;;7.90;99.90;;;6.34;77.79;100761.00;10398636;27;96616;-85
2022/04/30 03:57:10;;;;;;;0.00;0.00;;;8.00;99.90;;;6.36;78.29;100765.19;10391265;28;96549;-85
2022/04/30 04:02:13;;;;;;;1.03;0.40;;;8.00;99.90;;;6.38;78.26;100765.91;10427016;27;97771;-85
2022/04/30 04:07:16;;;;;;;0.00;0.00;;;8.00;99.90;;;6.42;78.18;100766.50;10416180;27;98542;-84
2022/04/30 04:12:19;;;;;;;0.00;0.00;;;8.00;99.90;;;6.52;78.49;100769.19;10376508;27;96587;-86
2022/04/30 04:17:43;;;;;;;0.00;0.00;;;8.10;99.90;;;6.65;78.54;100775.13;10376306;27;98476;-85
2022/04/30 04:22:46;;;;;;;0.03;0.03;;;8.20;99.90;;;6.78;78.63;100774.91;10402360;27;98344;-85
2022/04/30 04:27:53;;;;;;;0.00;0.00;;;8.30;99.90;;;6.92;78.53;100769.31;10386218;27;97418;-85
2022/04/30 04:32:58;;;;;;;0.00;0.00;;;8.40;99.90;;;7.09;78.41;100773.19;10419694;27;98107;-86
2022/04/30 04:38:01;;;;;;;0.00;0.00;;;8.50;99.90;;;7.28;77.96;100777.72;10418404;27;97713;-86
2022/04/30 04:43:04;;;;;;;0.00;0.00;;;8.70;99.90;;;7.46;77.96;100773.47;10408287;27;96635;-85
2022/04/30 04:48:14;;;;;;;0.00;0.00;;;8.90;99.90;;;7.66;77.85;100767.25;10433541;27;97215;-85
2022/04/30 04:53:18;;;;;;;0.00;0.00;;;9.10;99.90;;;7.89;77.32;100767.03;10395258;27;97276;-86
2022/04/30 04:58:21;;;;;;;0.00;0.00;;;9.30;99.90;;;8.13;77.06;100775.44;10371364;27;97779;-86
2022/04/30 05:03:24;;;;;;;0.00;0.00;;;9.50;99.90;;;8.39;76.68;100773.09;10422232;27;96489;-86
2022/04/30 05:08:27;;;;;;;0.00;0.00;;;9.70;99.90;;;8.63;76.14;100770.00;10395823;27;97185;-86
2022/04/30 05:13:30;;;;;;;0.00;0.00;;;9.90;99.90;;;8.89;75.11;100777.38;10407905;27;98333;-86
2022/04/30 05:18:33;;;;;;;2.57;1.10;;;10.20;99.90;;;9.14;74.19;100779.41;10396068;27;97527;-87
2022/04/30 05:23:36;;;;;;;0.10;0.10;;;10.40;99.90;;;9.41;73.53;100777.75;10411364;27;97189;-86
2022/04/30 05:28:39;;;;;;;0.27;0.27;;;10.60;99.90;;;9.72;72.69;100765.91;10407206;27;96763;-87
2022/04/30 05:33:43;;;;;;;0.00;0.00;;;10.90;99.90;;;9.99;71.96;100777.47;10416065;27;97416;-86
2022/04/30 05:38:47;;;;;;;0.00;0.00;;;11.20;99.90;;;10.26;70.56;100769.47;10419337;27;98234;-87
2022/04/30 05:43:50;;;;;;;0.20;0.20;;;11.50;99.90;;;10.54;70.42;100780.00;10424412;27;96605;-87
2022/04/30 05:48:52;;;;;;;0.00;0.00;;;11.70;99.90;;;10.83;69.91;100782.38;10404708;27;96848;-87
2022/04/30 05:53:57;;;;;;;0.13;0.13;;;12.00;99.90;;;11.11;69.13;100785.75;10415690;27;98823;-87
2022/04/30 05:59:00;;;;;;;0.00;0.00;;;12.30;99.90;;;11.35;68.63;100785.88;10397223;27;96603;-87
2022/04/30 06:04:03;;;;;;;0.00;0.00;;;12.60;99.90;;;11.53;67.31;100789.28;10395832;27;96567;-86
2022/04/30 06:09:06;;;;;;;0.00;0.00;;;12.80;99.90;;;11.70;66.42;100786.72;10416961;27;97068;-87
2022/04/30 06:14:08;;;;;;;0.00;0.00;;;13.00;99.90;;;11.88;66.58;100779.47;10416164;27;96594;-86
2022/04/30 06:19:13;;;;;;;0.33;0.30;;;13.20;99.90;;;12.03;66.75;100777.00;10424959;27;99095;-87
2022/04/30 06:24:17;;;;;;;0.00;0.00;;;13.30;99.90;;;12.21;66.32;100780.38;10375018;27;97543;-87
2022/04/30 06:29:22;;;;;;;0.10;0.10;;;13.50;99.90;;;12.41;65.60;100780.03;10429136;27;97330;-87
2022/04/30 06:34:25;;;;;;;1.30;0.30;;;13.70;99.50;;;12.70;64.44;100775.06;10422313;27;96683;-87
2022/04/30 06:39:28;;;;;;;0.00;0.00;;;13.90;96.60;;;13.04;63.54;100774.03;10405556;27;97288;-88
2022/04/30 06:44:31;;;;;;;0.00;0.00;;;14.20;97.20;;;13.38;59.84;100765.78;10388561;27;96830;-87
2022/04/30 06:49:34;;;;;;;0.20;0.20;;;14.50;92.80;;;13.75;55.80;100777.66;10396432;27;96802;-87
2022/04/30 06:59:59;;;;;;;0.47;0.47;;;15.20;87.90;;;14.37;52.65;100756.22;10421287;27;98345;-86
2022/04/30 07:05:04;;;;;;;0.10;0.10;;;15.50;78.00;;;14.64;51.66;100755.69;10392106;27;97803;-85
2022/04/30 07:10:08;;;;;;;0.30;0.22;;;15.80;79.40;;;14.90;48.52;100757.97;10396367;27;96691;-86
2022/04/30 07:15:11;;;;;;;0.85;0.82;;;16.10;75.90;;;15.16;48.43;100749.47;10412514;27;98732;-86
2022/04/30 07:20:14;;;;;;;0.00;0.00;;;16.30;74.30;;;15.43;48.85;100755.22;10414020;27;98808;-82
2022/04/30 07:25:17;;;;;;;0.65;0.65;;;16.60;74.00;;;15.58;48.79;100753.34;10408493;27;97095;-81
2022/04/30 07:30:20;;;;;;;0.03;0.03;;;16.80;72.10;;;15.74;48.09;100752.34;10402478;27;96914;-81
2022/04/30 07:35:23;;;;;;;0.00;0.00;;;17.00;71.00;;;15.97;47.95;100741.47;10426532;27;96598;-83
2022/04/30 07:40:26;;;;;;;0.05;0.05;;;17.20;68.30;;;16.17;46.74;100731.75;10398108;27;96893;-83
2022/04/30 07:45:29;;;;;;;0.00;0.00;;;17.40;68.80;;;16.29;45.06;100726.72;10386960;27;98830;-84
2022/04/30 07:50:36;;;;;;;0.08;0.08;;;17.60;66.20;;;16.37;45.52;100720.38;10425999;27;98451;-84
2022/04/30 07:55:40;;;;;;;0.10;0.10;;;17.60;65.40;;;16.52;46.31;100729.19;10393814;27;97342;-84
2022/04/30 08:00:43;;;;;;;0.08;0.00;;;17.70;63.40;;;16.76;46.88;100731.47;10370586;27;96729;-85
2022/04/30 08:05:46;;;;;;;0.47;0.47;;;18.00;66.90;;;16.87;43.52;100729.28;10395805;27;97115;-84
2022/04/30 08:10:49;;;;;;;0.20;0.10;;;18.10;62.80;;;17.04;45.06;100717.22;10402791;27;97019;-84
2022/04/30 08:15:52;;;;;;;0.10;0.00;;;18.30;63.10;;;17.26;45.03;100724.16;10397211;27;97775;-84
2022/04/30 08:20:55;;;;;;;0.00;0.00;;;18.50;63.00;;;17.58;44.35;100719.16;10405405;27;96704;-84
2022/04/30 08:25:59;;;;;;;0.00;0.00;;;18.70;63.30;;;17.85;44.57;100715.53;10397266;27;97115;-84
2022/04/30 08:31:02;;;;;;;0.45;0.45;;;19.00;63.70;;;18.13;43.67;100714.56;10398672;27;96756;-83
2022/04/30 08:36:06;;;;;;;0.00;0.00;;;19.30;60.00;;;18.27;43.75;100721.59;10420963;27;97427;-84
2022/04/30 08:41:13;;;;;;;0.00;0.00;;;19.40;61.30;;;18.33;42.29;100710.00;10398494;27;98761;-84
2022/04/30 08:46:20;;;;;;;1.50;0.95;;;19.50;60.00;;;18.34;42.19;100711.66;10394163;27;96686;-84
2022/04/30 08:51:23;;;;;;;0.10;0.03;;;19.60;59.60;;;18.49;41.53;100710.66;10386420;27;97389;-83
2022/04/30 08:56:26;;;;;;;0.00;0.00;;;19.70;59.10;;;18.72;42.13;100705.72;10414902;27;97984;-84
2022/04/30 09:01:29;;;;;;;0.60;0.60;;;19.90;59.40;;;18.92;40.52;100689.50;10411269;27;97413;-82
2022/04/30 09:06:32;;;;;;;0.68;0.50;;;20.10;57.00;;;19.18;39.53;100694.00;10420985;27;96958;-85
2022/04/30 09:11:38;;;;;;;0.43;0.43;;;20.30;57.40;;;19.39;40.45;100688.31;10447186;27;96746;-84
2022/04/30 09:16:42;;;;;;;0.10;0.10;;;20.50;56.80;;;19.37;38.50;100666.16;10399563;27;96842;-83
2022/04/30 09:21:49;;;;;;;0.10;0.05;;;20.60;54.50;;;19.42;37.43;100660.94;10382499;27;97054;-84
2022/04/30 09:26:52;;;;;;;0.05;0.05;;;20.70;52.80;;;19.62;38.01;100658.19;10406510;27;97162;-83
2022/04/30 09:31:55;;;;;;;1.55;0.50;;;20.80;54.00;;;19.84;37.59;100653.25;10396734;27;98204;-83
2022/04/30 09:42:20;;;;;;;0.00;0.00;;;21.30;50.70;;;20.31;36.29;100637.56;10413558;27;97487;-85
2022/04/30 09:47:25;;;;;;;0.63;0.15;;;21.50;51.50;;;20.47;36.06;100634.34;10407154;27;97399;-85
2022/04/30 09:57:52;;;;;;;0.03;0.03;;;21.80;50.50;;;20.62;35.68;100630.44;10423493;27;98519;-84
2022/04/30 10:03:01;;;;;;;0.43;0.43;;;21.90;50.30;;;20.91;34.39;100623.47;10396399;27;98375;-84
2022/04/30 10:08:05;;;;;;;0.00;0.00;;;22.10;49.50;;;21.39;34.05;100610.00;10399831;27;96482;-84
2022/04/30 10:13:49;;;;;;;0.15;0.05;;;22.40;47.80;;;21.51;32.65;100599.25;10415579;27;96581;-84
2022/04/30 10:19:16;;;;;;;0.75;0.10;;;22.70;47.80;;;21.57;33.65;100595.63;10373007;27;96942;-84
2022/04/30 10:24:19;;;;;;;0.00;0.00;;;22.70;47.90;;;21.73;31.80;100586.84;10374994;27;96598;-84
2022/04/30 10:29:22;;;;;;;0.15;0.15;;;23.00;47.20;;;21.86;31.63;100588.53;10379701;27;98732;-84
2022/04/30 10:34:30;;;;;;;0.00;0.00;;;23.10;46.10;;;21.91;30.42;100580.53;10380093;27;96739;-84
2022/04/30 10:39:33;;;;;;;0.93;0.90;;;23.20;45.40;;;21.86;30.89;100575.00;10393549;27;96619;-84
2022/04/30 10:44:36;;;;;;;0.00;0.00;;;23.10;43.70;;;21.81;29.27;100569.47;10404205;27;98880;-85
2022/04/30 10:49:40;;;;;;;0.00;0.00;;;23.20;43.90;;;21.40;28.79;100568.41;10405312;27;98251;-83
2022/04/30 10:54:47;;;;;;;0.00;0.00;;;22.90;42.40;;;21.21;30.47;100566.78;10413464;27;96981;-83
2022/04/30 10:59:59;;;;;;;0.00;0.00;;;22.70;44.20;;;21.36;29.14;100559.13;10406349;27;97401;-82
2022/04/30 11:05:03;;;;;;;0.80;0.15;;;22.70;43.00;;;21.48;29.12;100559.16;10389026;27;97452;-83
2022/04/30 11:10:07;;;;;;;0.77;0.47;;;22.80;42.90;;;21.22;28.32;100554.91;10376739;27;96655;-85
2022/04/30 11:15:14;;;;;;;0.57;0.38;;;22.70;41.60;;;21.07;29.83;100560.75;10400222;27;97663;-82
2022/04/30 11:20:22;;;;;;;0.22;0.17;;;22.50;43.10;;;20.87;30.02;100544.78;10386329;27;96619;-82
2022/04/30 11:25:39;;;;;;;0.00;0.00;;;22.40;42.80;;;20.90;27.78;100546.22;10392909;27;96549;-84
2022/04/30 11:30:44;;;;;;;0.80;0.52;;;22.30;41.10;;;21.08;27.33;100538.06;10387346;27;98335;-82
2022/04/30 11:35:54;;;;;;;0.20;0.10;;;22.40;40.90;;;21.21;29.55;100526.25;10414462;27;96961;-82
2022/04/30 11:41:05;;;;;;;0.00;0.00;;;22.50;42.80;;;20.94;27.24;100532.03;10395477;27;98351;-82
2022/04/30 11:46:08;;;;;;;0.30;0.30;;;22.40;40.70;;;20.65;28.20;100532.81;10392995;27;97130;-82
2022/04/30 11:51:11;;;;;;;0.05;0.05;;;22.10;40.90;;;20.93;27.47;100513.31;10392406;27;96661;-83
2022/04/30 11:56:15;;;;;;;0.40;0.10;;;22.20;40.70;;;21.12;27.48;100517.66;10395946;27;96790;-82
2022/04/30 12:01:26;;;;;;;0.05;0.05;;;22.30;41.00;;;21.24;27.42;100505.00;10416011;27;97340;-85
2022/04/30 12:06:30;;;;;;;0.10;0.10;;;22.50;40.40;;;21.17;28.56;100503.44;10402460;27;97774;-83
2022/04/30 12:11:42;;;;;;;0.00;0.00;;;22.50;41.40;;;21.00;28.70;100487.06;10423817;27;96661;-84
2022/04/30 12:16:47;;;;;;;0.00;0.00;;;22.40;41.40;;;20.88;27.96;100491.59;10431052;27;96566;-84
2022/04/30 12:27:23;;;;;;;0.05;0.05;;;22.20;41.30;;;20.72;28.57;100487.63;10389378;27;97544;-82
2022/04/30 12:32:26;;;;;;;0.28;0.10;;;22.20;41.50;;;20.67;29.68;100485.59;10398806;27;98265;-82
2022/04/30 12:37:32;;;;;;;0.00;0.00;;;22.10;42.20;;;20.74;29.50;100483.66;10396637;27;98353;-83
2022/04/30 12:42:35;;;;;;;0.00;0.00;;;22.10;42.00;;;20.78;29.85;100467.81;10385406;27;96766;-83
2022/04/30 12:47:39;;;;;;;0.00;0.00;;;22.20;42.50;;;20.90;29.64;100466.00;10391295;27;97404;-84
2022/04/30 12:52:42;;;;;;;0.63;0.25;;;22.30;42.60;;;20.83;27.93;100470.66;10407646;27;96681;-82
2022/04/30 12:57:47;;;;;;;0.20;0.20;;;22.20;41.00;;;21.23;29.71;100449.31;10399694;27;97329;-82
2022/04/30 13:02:51;;;;;;;0.08;0.03;;;22.50;42.40;;;21.51;28.41;100451.34;10412699;27;98176;-84
2022/04/30 13:07:54;;;;;;;0.40;0.20;;;23.00;41.20;;;21.31;28.16;100440.06;10385559;28;96728;-83
2022/04/30 13:18:19;;;;;;;0.00;0.00;;;22.70;40.80;;;20.83;29.12;100446.34;10421062;27;96608;-83
2022/04/30 13:23:23;;;;;;;0.98;0.55;;;22.40;41.20;;;20.49;28.57;100445.97;10390764;27;98926;-83
2022/04/30 13:28:26;;;;;;;0.10;0.10;;;22.10;41.00;;;20.26;29.57;100440.41;10384349;27;97744;-82
2022/04/30 13:33:29;;;;;;;0.00;0.00;;;21.80;41.80;;;20.21;29.78;100434.84;10400980;27;98033;-81
2022/04/30 13:38:32;;;;;;;0.00;0.00;;;21.60;41.80;;;20.24;29.69;100429.84;10436073;27;96667;-82
2022/04/30 13:43:35;;;;;;;0.00;0.00;;;21.60;42.40;;;20.30;29.47;100420.00;10430557;27;96653;-82
2022/04/30 13:48:38;;;;;;;0.10;0.10;;;21.70;42.20;;;20.45;28.81;100420.50;10418118;27;96608;-81
2022/04/30 13:53:42;;;;;;;0.40;0.32;;;21.80;41.90;;;20.53;28.88;100411.25;10410872;27;97484;-82
2022/04/30 13:58:45;;;;;;;0.05;0.05;;;21.90;41.40;;;20.43;29.50;100408.22;10403778;27;96726;-83
2022/04/30 14:03:48;;;;;;;0.30;0.13;;;21.90;42.00;;;20.39;30.30;100415.13;10399055;27;96641;-83
2022/04/30 14:08:51;;;;;;;0.13;0.13;;;21.80;42.40;;;20.39;30.17;100405.19;10383974;27;96415;-87
2022/04/30 14:19:16;;;;;;;0.22;0.22;;;21.80;42.20;;;20.21;29.90;100402.47;10378872;28;97332;-87
2022/04/30 14:24:18;;;;;;;0.00;0.00;;;21.60;42.30;;;20.16;29.96;100407.75;10398082;27;97787;-86
2022/04/30 14:29:29;;;;;;;0.00;0.00;;;21.60;42.30;;;20.11;29.83;100400.31;10412770;27;96585;-86
2022/04/30 14:34:32;;;;;;;0.57;0.35;;;21.50;42.00;;;20.08;29.79;100399.94;10400808;27;97170;-88
2022/04/30 14:39:36;;;;;;;0.10;0.10;;;21.50;42.20;;;20.21;30.29;100402.47;10398721;27;96652;-87
2022/04/30 14:44:40;;;;;;;0.00;0.00;;;21.50;42.90;;;20.36;30.05;100383.19;10416437;27;96863;-85
2022/04/30 14:49:45;;;;;;;0.10;0.10;;;21.70;42.70;;;20.36;29.67;100388.59;10417012;28;96944;-79
2022/04/30 14:54:49;;;;;;;0.25;0.00;;;21.80;42.60;;;20.30;29.84;100385.75;10409524;27;96748;-82
2022/04/30 14:59:52;;;;;;;0.10;0.10;;;21.70;42.50;;;20.44;29.30;100381.00;10427974;27;96590;-80
2022/04/30 15:04:55;;;;;;;0.00;0.00;;;21.80;42.40;;;20.80;31.16;100384.69;10415635;27;98639;-81
2022/04/30 15:09:58;;;;;;;0.20;0.20;;;22.10;43.40;;;20.89;30.18;100383.31;10406448;27;96489;-80
2022/04/30 15:15:03;;;;;;;0.00;0.00;;;22.30;43.00;;;20.81;30.94;100378.22;10395255;27;96550;-81
2022/04/30 15:20:08;;;;;;;0.00;0.00;;;22.20;43.60;;;21.19;28.99;100371.63;10404802;27;98584;-85
2022/04/30 15:25:10;;;;;;;0.43;0.43;;;22.40;42.10;;;21.89;30.42;100361.63;10412948;27;97859;-84
2022/04/30 15:30:14;;;;;;;0.20;0.20;;;23.00;43.40;;;22.46;28.74;100371.72;10412066;27;98626;-84
2022/04/30 15:35:17;;;;;;;0.00;0.00;;;23.60;42.00;;;22.32;27.63;100362.25;10374557;28;96802;-84
2022/04/30 15:40:21;;;;;;;0.00;0.00;;;23.70;40.90;;;21.99;29.10;100363.72;10358042;27;98688;-84
2022/04/30 15:45:28;;;;;;;0.00;0.00;;;23.40;41.70;;;21.57;28.95;100369.31;10378659;27;98481;-83
2022/04/30 15:55:52;;;;;;;0.52;0.43;;;22.80;42.30;;;20.99;30.14;100351.16;10417009;27;96601;-83
2022/04/30 16:00:55;;;;;;;0.10;0.10;;;22.60;42.70;;;20.64;30.01;100348.38;10407946;27;96759;-83
2022/04/30 16:06:02;;;;;;;0.65;0.60;;;22.30;42.20;;;20.23;29.77;100355.34;10415665;28;96534;-83
2022/04/30 16:11:06;;;;;;;2.60;0.63;;;21.90;41.80;;;19.97;30.58;100352.94;10400422;27;96700;-82
2022/04/30 16:16:15;;;;;;;0.08;0.08;;;21.60;42.80;;;19.80;31.18;100344.66;10388131;27;96628;-83
2022/04/30 16:21:18;;;;;;;0.10;0.10;;;21.30;43.30;;;19.64;31.46;100358.72;10405568;27;96574;-83
2022/04/30 16:26:22;;;;;;;0.00;0.00;;;21.20;43.50;;;19.53;31.46;100346.78;10395380;28;96623;-83
2022/04/30 16:31:25;;;;;;;0.00;0.00;;;21.10;43.50;;;19.41;33.38;100351.25;10395227;27;96772;-83
2022/04/30 16:36:28;;;;;;;0.00;0.00;;;20.90;45.70;;;19.35;34.50;100349.44;10389943;27;96879;-84
2022/04/30 16:41:32;;;;;;;0.00;0.00;;;20.80;46.10;;;19.23;35.21;100347.47;10372957;27;97715;-84
2022/04/30 16:46:35;;;;;;;0.00;0.00;;;20.70;46.90;;;19.03;34.14;100346.81;10373431;27;98128;-84
2022/04/30 16:57:04;;;;;;;0.10;0.10;;;20.40;46.10;;;18.70;34.60;100349.75;10374234;28;96523;-82
2022/04/30 17:02:15;;;;;;;0.00;0.00;;;20.20;46.50;;;18.58;36.52;100340.69;10373180;27;96555;-83
2022/04/30 17:07:20;;;;;;;0.00;0.00;;;20.00;48.50;;;18.38;38.51;100335.44;10356370;28;96541;-83
2022/04/30 17:12:23;;;;;;;0.00;0.00;;;19.90;51.10;;;18.10;39.30;100347.34;10374278;27;98705;-83
2022/04/30 17:17:28;;;;;;;0.10;0.10;;;19.60;51.70;;;17.83;40.64;100340.44;10372477;27;96566;-83
2022/04/30 17:22:32;;;;;;;0.00;0.00;;;19.30;53.50;;;17.51;42.34;100348.34;10387359;27;96597;-83
2022/04/30 17:27:40;;;;;;;0.03;0.03;;;19.00;54.40;;;17.15;43.15;100348.75;10414146;28;96450;-83
2022/04/30 17:38:04;;;;;;;0.65;0.30;;;18.40;56.30;;;16.47;45.27;100362.28;10405080;28;98674;-82
2022/04/30 17:43:10;;;;;;;0.08;0.08;;;18.00;57.70;;;16.18;45.49;100368.78;10384815;27;96657;-82
2022/04/30 17:48:19;;;;;;;0.00;0.00;;;17.70;58.00;;;15.91;45.88;100364.34;10379915;27;96858;-82
2022/04/30 17:53:22;;;;;;;0.00;0.00;;;17.40;57.50;;;15.63;45.87;100365.22;10361921;28;96615;-82
2022/04/30 17:58:26;;;;;;;0.10;0.00;;;17.20;57.70;;;15.37;46.04;100379.22;10380333;28;97043;-82
2022/04/30 18:03:28;;;;;;;0.00;0.00;;;16.90;56.60;;;15.14;46.48;100382.13;10361155;28;96544;-81
2022/04/30 18:08:33;;;;;;;0.20;0.20;;;16.70;56.90;;;14.93;46.77;100387.47;10378063;28;96534;-82
2022/04/30 18:13:36;;;;;;;0.20;0.20;;;16.50;58.40;;;14.72;47.76;100391.00;10375682;27;97300;-82
2022/04/30 18:18:39;;;;;;;0.00;0.00;;;16.20;59.60;;;14.50;48.30;100406.16;10377567;27;96635;-83
2022/04/30 18:23:42;;;;;;;0.00;0.00;;;16.00;59.80;;;14.19;49.00;100403.72;10395187;27;96525;-82
2022/04/30 18:28:48;;;;;;;0.00;0.00;;;15.80;60.40;;;13.93;50.52;100407.69;10377410;28;97060;-82
2022/04/30 18:33:51;;;;;;;0.60;0.40;;;15.50;62.70;;;13.64;51.77;100413.03;10396479;28;96624;-83
2022/04/30 18:38:55;;;;;;;0.00;0.00;;;15.20;64.30;;;13.43;52.05;100421.72;10375866;28;96492;-83
2022/04/30 18:43:59;;;;;;;0.00;0.00;;;14.90;63.80;;;13.27;52.17;100427.22;10395380;27;96588;-82
2022/04/30 18:49:04;;;;;;;0.10;0.10;;;14.70;63.80;;;13.10;53.23;100429.97;10417426;27;96489;-82
2022/04/30 19:04:50;;;;;;;0.00;0.00;;;14.30;68.40;;;12.52;55.68;100459.84;10376626;28;96484;-83
2022/04/30 19:09:53;;;;;;;0.00;0.00;;;14.00;67.70;;;12.36;56.67;100458.09;10389485;27;96642;-82
2022/04/30 19:14:56;;;;;;;0.00;0.00;;;13.90;69.50;;;12.25;57.13;100461.13;10412908;27;96559;-83
2022/04/30 19:19:59;;;;;;;0.00;0.00;;;13.70;67.90;;;12.10;57.11;100454.84;10402923;28;96555;-82
2022/04/30 19:25:04;;;;;;;0.00;0.00;;;13.60;70.90;;;12.02;56.86;100456.53;10398704;27;96594;-83
2022/04/30 19:30:08;;;;;;;0.00;0.00;;;13.50;69.70;;;11.88;58.67;100454.59;10400722;27;97976;-83
2022/04/30 19:35:11;;;;;;;0.00;0.00;;;13.40;72.50;;;11.79;58.57;100466.22;10399078;28;97659;-82
2022/04/30 19:40:14;;;;;;;0.00;0.00;;;13.20;72.10;;;11.73;58.34;100464.22;10397920;27;98356;-82
2022/04/30 19:45:21;;;;;;;0.00;0.00;;;13.20;70.90;;;11.60;59.01;100469.25;10398064;27;96598;-83
2022/04/30 19:50:23;;;;;;;0.00;0.00;;;13.10;71.10;;;11.54;59.14;100470.75;10376424;28;96469;-82
2022/04/30 19:55:27;;;;;;;0.00;0.00;;;13.00;72.00;;;11.43;59.16;100465.75;10391584;27;96606;-83
2022/04/30 20:00:30;;;;;;;0.00;0.00;;;12.90;74.30;;;11.31;59.90;100470.56;10376743;27;96402;-83
2022/04/30 20:05:33;;;;;;;0.00;0.00;;;12.80;73.40;;;11.29;59.28;100472.56;10379028;27;96823;-82
2022/04/30 20:21:22;;;;;;;;;;;12.70;73.80;;;11.24;59.59;100470.41;10381878;28;96398;-82
2022/04/30 20:26:25;;;;;;;0.00;0.00;;;12.70;75.10;;;11.21;59.98;100473.38;10382985;27;96680;-82
2022/04/30 20:36:50;;;;;;;0.00;0.00;;;12.60;77.20;;;11.12;60.96;100485.03;10367883;28;96738;-82
2022/04/30 20:41:55;;;;;;;0.00;0.00;;;12.60;77.60;;;11.14;61.48;100479.53;10369899;28;96564;-82
2022/04/30 20:46:58;;;;;;;0.00;0.00;;;12.60;78.50;;;11.17;61.65;100479.22;10332479;28;96910;-82
2022/04/30 20:52:03;;;;;;;0.10;0.10;;;12.60;79.40;;;11.20;62.01;100477.03;10332163;28;97600;-82
2022/04/30 20:57:07;;;;;;;0.00;0.00;;;12.60;80.00;;;11.26;61.20;100486.19;10331897;28;97572;-82
2022/04/30 21:02:12;;;;;;;0.00;0.00;;;12.70;79.50;;;11.33;61.46;100479.22;10331599;28;96512;-82
2022/04/30 21:07:16;;;;;;;0.00;0.00;;;12.70;80.60;;;11.36;61.66;100481.56;10349065;28;97706;-82
2022/04/30 21:12:20;;;;;;;0.37;0.37;;;12.80;81.20;;;11.38;61.70;100474.22;10380491;28;96453;-82
2022/04/30 21:17:23;;;;;;;0.00;0.00;;;12.80;81.60;;;11.34;62.04;100472.91;10393950;27;96651;-82
2022/04/30 21:22:26;;;;;;;0.00;0.00;;;12.80;81.20;;;11.34;62.47;100474.75;10382322;28;96559;-82
2022/04/30 21:27:30;;;;;;;0.00;0.00;;;12.80;82.80;;;11.32;62.71;100480.22;10372226;28;99118;-82
2022/04/30 21:32:33;;;;;;;0.00;0.00;;;12.80;84.90;;;11.32;62.99;100477.53;10366346;27;97777;-82
2022/04/30 21:37:36;;;;;;;0.00;0.00;;;12.80;85.20;;;11.30;63.43;100476.88;10399937;27;97479;-81
2022/04/30 21:42:39;;;;;;;0.30;0.10;;;12.70;85.90;;;11.29;62.79;100469.09;10386992;27;98481;-82
2022/04/30 21:47:42;;;;;;;0.10;0.10;;;12.70;84.40;;;11.29;62.09;100466.44;10418496;27;96841;-81
2022/04/30 21:52:45;;;;;;;0.20;0.20;;;12.70;83.80;;;11.30;62.42;100471.56;10406230;27;98335;-82
2022/04/30 22:03:09;;;;;;;0.00;0.00;;;12.70;82.00;;;11.31;63.04;100469.75;10395917;27;97219;-82
2022/04/30 22:08:12;;;;;;;0.50;0.50;;;12.70;87.10;;;11.29;63.27;100461.94;10431215;27;96629;-82
2022/04/30 22:13:16;;;;;;;0.00;0.00;;;12.70;87.40;;;11.23;63.90;100467.91;10405674;27;98549;-82
2022/04/30 22:18:20;;;;;;;0.00;0.00;;;12.60;88.00;;;11.20;63.75;100471.72;10423640;27;98722;-81
2022/04/30 22:23:23;;;;;;;0.00;0.00;;;12.60;87.60;;;11.17;63.68;100461.44;10377324;27;100050;-82
2022/04/30 22:28:26;;;;;;;0.00;0.00;;;12.60;88.90;;;11.25;63.10;100457.94;10393982;27;98371;-82
2022/04/30 22:33:29;;;;;;;0.00;0.00;;;12.70;85.90;;;11.28;63.03;100457.63;10395404;27;96746;-82
2022/04/30 22:38:32;;;;;;;0.43;0.43;;;12.70;85.70;;;11.34;62.69;100461.44;10396038;27;96993;-82